createdAt,value
2022-12-19T00:00:32.681Z,-1.44
2022-12-19T00:05:38.993Z,-1.43
2022-12-19T00:10:41.307Z,-1.49
2022-12-19T00:15:43.134Z,-1.50
2022-12-19T00:20:44.670Z,-1.55
2022-12-19T00:25:46.057Z,-1.54
2022-12-19T00:30:48.504Z,-1.56
2022-12-19T00:35:49.895Z,-1.57
2022-12-19T00:40:51.353Z,-1.58
2022-12-19T00:45:52.866Z,-1.59
2022-12-19T00:51:02.065Z,-1.61
2022-12-19T00:56:06.176Z,-1.65
2022-12-19T01:01:15.257Z,-1.64
2022-12-19T01:06:17.299Z,-1.64
2022-12-19T01:11:38.828Z,-1.65
2022-12-19T01:16:40.382Z,-1.63
2022-12-19T01:21:42.302Z,-1.62
2022-12-19T01:26:44.419Z,-1.67
2022-12-19T01:31:46.961Z,-1.67
2022-12-19T01:36:49.322Z,-1.70
2022-12-19T01:41:50.794Z,-1.75
2022-12-19T01:46:59.382Z,-1.77
2022-12-19T01:52:07.135Z,-1.78
2022-12-19T01:57:14.048Z,-1.80
2022-12-19T02:02:29.313Z,-1.76
2022-12-19T02:07:32.672Z,-1.80
2022-12-19T02:12:36.412Z,-1.85
2022-12-19T02:17:53.618Z,-1.86
2022-12-19T02:22:55.984Z,-1.86
2022-12-19T02:28:00.536Z,-1.90
2022-12-19T02:33:13.789Z,-1.91
2022-12-19T02:38:18.440Z,-1.93
2022-12-19T02:43:23.206Z,-1.92
2022-12-19T02:48:26.655Z,-1.90
2022-12-19T02:53:29.493Z,-1.88
2022-12-19T02:59:02.436Z,-1.87
2022-12-19T03:04:15.819Z,-1.86
2022-12-19T03:09:37.792Z,-1.81
2022-12-19T03:14:39.684Z,-1.77
2022-12-19T03:19:42.180Z,-1.71
2022-12-19T03:24:43.663Z,-1.66
2022-12-19T03:30:03.036Z,-1.62
2022-12-19T03:35:10.707Z,-1.59
2022-12-19T03:40:17.748Z,-1.52
2022-12-19T03:45:26.692Z,-1.40
2022-12-19T03:50:38.469Z,-1.28
2022-12-19T03:55:47.381Z,-1.26
2022-12-19T04:00:50.758Z,-1.23
2022-12-19T04:05:54.151Z,-1.20
2022-12-19T04:11:01.377Z,-1.17
2022-12-19T04:16:27.518Z,-1.18
2022-12-19T04:21:40.458Z,-1.15
2022-12-19T04:26:46.877Z,-1.07
2022-12-19T04:31:48.845Z,-0.98
2022-12-19T04:36:51.136Z,-0.93
2022-12-19T04:41:52.542Z,-0.97
2022-12-19T04:46:54.203Z,-1.05
2022-12-19T04:51:55.756Z,-1.10
2022-12-19T04:56:57.270Z,-1.15
2022-12-19T05:01:58.768Z,-1.17
2022-12-19T05:07:01.086Z,-1.19
2022-12-19T05:12:02.493Z,-1.23
2022-12-19T05:17:04.223Z,-1.25
2022-12-19T05:22:05.726Z,-1.25
2022-12-19T05:27:07.881Z,-1.24
2022-12-19T05:32:09.307Z,-1.26
2022-12-19T05:37:10.706Z,-1.23
2022-12-19T05:42:12.663Z,-1.22
2022-12-19T05:47:14.316Z,-1.23
2022-12-19T05:52:15.828Z,-1.22
2022-12-19T05:57:17.362Z,-1.14
2022-12-19T06:02:18.904Z,-1.03
2022-12-19T06:07:21.231Z,-0.96
2022-12-19T06:12:22.921Z,-0.88
2022-12-19T06:17:24.373Z,-0.88
2022-12-19T06:22:25.885Z,-0.89
2022-12-19T06:27:27.296Z,-0.87
2022-12-19T06:32:31.325Z,-0.80
2022-12-19T06:37:38.925Z,-0.75
2022-12-19T06:42:40.842Z,-0.59
2022-12-19T06:47:42.253Z,-0.48
2022-12-19T06:52:43.657Z,-0.33
2022-12-19T06:57:46.407Z,-0.23
2022-12-19T07:02:51.684Z,-0.12
2022-12-19T07:07:53.374Z,-0.05
2022-12-19T07:12:54.970Z,-0.07
2022-12-19T07:17:56.535Z,-0.06
2022-12-19T07:22:57.965Z,0.01
2022-12-19T07:27:59.983Z,0.06
2022-12-19T07:33:01.484Z,0.05
2022-12-19T07:38:04.833Z,-0.01
2022-12-19T07:43:06.738Z,-0.05
2022-12-19T07:48:08.621Z,-0.04
2022-12-19T07:53:10.093Z,0.06
2022-12-19T07:58:11.683Z,0.17
2022-12-19T08:03:15.749Z,0.30
2022-12-19T08:08:17.887Z,0.40
2022-12-19T08:13:19.430Z,0.44
2022-12-19T08:18:20.850Z,0.44
2022-12-19T08:23:22.481Z,0.50
2022-12-19T08:28:24.017Z,0.53
2022-12-19T08:33:25.419Z,0.66
2022-12-19T08:38:27.020Z,0.79
2022-12-19T08:43:28.994Z,0.95
2022-12-19T08:48:34.198Z,1.09
2022-12-19T08:53:39.075Z,1.22
2022-12-19T08:58:41.090Z,1.24
2022-12-19T09:03:59.568Z,1.35
2022-12-19T09:09:05.055Z,1.57
2022-12-19T09:14:06.523Z,1.73
2022-12-19T09:19:07.959Z,1.79
2022-12-19T09:24:10.536Z,1.91
2022-12-19T09:29:20.026Z,2.03
2022-12-19T09:34:24.054Z,2.08
2022-12-19T09:39:26.720Z,2.09
2022-12-19T09:45:22.202Z,2.11
2022-12-19T09:50:44.522Z,2.23
2022-12-19T09:55:47.682Z,2.34
2022-12-19T10:00:56.804Z,2.47
2022-12-19T10:07:00.724Z,2.64
2022-12-19T10:12:39.689Z,2.79
2022-12-19T10:17:34.153Z,2.93
2022-12-19T10:22:52.891Z,2.96
2022-12-19T10:28:32.801Z,3.01
2022-12-19T10:33:48.787Z,3.06
2022-12-19T10:39:06.471Z,3.16
2022-12-19T10:44:14.509Z,3.21
2022-12-19T10:49:17.461Z,3.20
2022-12-19T10:54:19.203Z,3.20
2022-12-19T10:59:21.289Z,3.28
2022-12-19T11:04:29.748Z,3.28
2022-12-19T11:09:37.484Z,3.15
2022-12-19T11:22:16.938Z,3.06
2022-12-19T11:29:37.163Z,3.05
2022-12-19T11:30:25.557Z,3.09
2022-12-19T11:36:44.715Z,3.13
2022-12-19T11:41:55.143Z,3.19
2022-12-19T11:47:10.931Z,3.28
2022-12-19T11:57:48.251Z,3.33
2022-12-19T12:02:58.859Z,3.35
2022-12-19T12:10:31.970Z,3.40
2022-12-19T12:25:47.074Z,3.54
2022-12-19T12:31:01.284Z,3.65
2022-12-19T12:31:42.239Z,3.76
2022-12-19T12:43:08.961Z,4.04
2022-12-19T12:48:29.978Z,4.08
2022-12-19T12:53:38.406Z,4.06
2022-12-19T12:58:53.822Z,4.06
2022-12-19T13:03:58.750Z,4.02
2022-12-19T13:09:09.293Z,4.05
2022-12-19T13:14:35.764Z,4.07
2022-12-19T13:19:58.576Z,4.10
2022-12-19T13:25:00.564Z,4.12
2022-12-19T13:30:12.347Z,4.12
2022-12-19T13:35:45.364Z,4.12
2022-12-19T13:40:44.159Z,4.10
2022-12-19T13:45:51.695Z,4.09
2022-12-19T13:50:54.774Z,4.08
2022-12-19T13:56:02.056Z,4.08
2022-12-19T14:01:20.067Z,4.05
2022-12-19T14:06:30.061Z,4.04
2022-12-19T14:13:44.221Z,4.01
2022-12-19T14:17:12.361Z,4.01
2022-12-19T14:22:26.058Z,3.96
2022-12-19T14:28:26.482Z,3.99
2022-12-19T14:33:39.955Z,3.99
2022-12-19T14:39:21.975Z,3.96
2022-12-19T14:51:51.587Z,3.89
2022-12-19T14:54:18.066Z,3.88
2022-12-19T14:55:59.080Z,3.92
2022-12-19T15:01:09.042Z,4.00
2022-12-19T15:06:32.119Z,4.01
2022-12-19T15:12:39.338Z,4.01
2022-12-19T15:17:27.530Z,4.00
2022-12-19T15:22:28.914Z,4.01
2022-12-19T15:27:31.488Z,4.03
2022-12-19T15:32:33.157Z,4.00
2022-12-19T15:37:34.545Z,4.02
2022-12-19T15:42:36.030Z,4.00
2022-12-19T15:47:37.565Z,3.98
2022-12-19T15:52:39.031Z,3.97
2022-12-19T15:57:44.332Z,3.94
2022-12-19T16:03:22.636Z,3.93
2022-12-19T16:08:16.678Z,3.97
2022-12-19T16:13:22.342Z,4.01
2022-12-19T16:18:23.793Z,4.02
2022-12-19T16:23:25.954Z,4.05
2022-12-19T16:28:34.828Z,4.06
2022-12-19T16:33:36.270Z,4.09
2022-12-19T16:38:37.671Z,4.08
2022-12-19T16:43:43.306Z,4.06
2022-12-19T16:48:45.225Z,4.05
2022-12-19T16:53:48.035Z,4.07
2022-12-19T16:58:49.811Z,4.06
2022-12-19T17:03:51.305Z,4.04
2022-12-19T17:08:52.733Z,4.00
2022-12-19T17:14:03.627Z,3.95
2022-12-19T17:19:05.185Z,3.94
2022-12-19T17:24:13.395Z,3.92
2022-12-19T17:29:15.356Z,3.91
2022-12-19T17:34:28.089Z,3.87
2022-12-19T17:39:32.945Z,3.88
2022-12-19T17:44:34.332Z,3.90
2022-12-19T17:49:35.839Z,3.91
2022-12-19T17:54:37.796Z,3.91
2022-12-19T17:59:39.348Z,3.91
2022-12-19T18:04:40.777Z,3.96
2022-12-19T18:09:42.254Z,4.04
2022-12-19T18:14:43.681Z,4.09
2022-12-19T18:19:45.112Z,4.10
2022-12-19T18:24:46.737Z,4.12
2022-12-19T18:29:48.270Z,4.18
2022-12-19T18:34:50.226Z,4.24
2022-12-19T18:39:55.391Z,4.28
2022-12-19T18:44:56.800Z,4.30
2022-12-19T18:49:58.232Z,4.31
2022-12-19T18:54:59.675Z,4.31
2022-12-19T19:00:01.071Z,4.28
2022-12-19T19:05:02.669Z,4.24
2022-12-19T19:10:16.869Z,4.23
2022-12-19T19:15:31.421Z,4.21
2022-12-19T19:20:36.608Z,4.26
2022-12-19T19:25:38.061Z,4.27
2022-12-19T19:30:40.425Z,4.29
2022-12-19T19:35:45.106Z,4.36
2022-12-19T19:40:46.563Z,4.34
2022-12-19T19:45:49.924Z,4.32
2022-12-19T19:50:51.339Z,4.31
2022-12-19T19:56:02.861Z,4.32
2022-12-19T20:01:12.101Z,4.32
2022-12-19T20:06:13.642Z,4.28
2022-12-19T20:11:15.425Z,4.27
2022-12-19T20:16:18.817Z,4.23
2022-12-19T20:21:21.020Z,4.21
2022-12-19T20:26:22.583Z,4.18
2022-12-19T20:31:24.153Z,4.15
2022-12-19T20:36:25.897Z,4.09
2022-12-19T20:41:27.380Z,4.05
2022-12-19T20:46:28.845Z,4.02
2022-12-19T20:51:30.275Z,3.99
2022-12-19T20:56:31.714Z,3.95
2022-12-19T21:01:33.471Z,3.93
2022-12-19T21:06:37.534Z,3.91
2022-12-19T21:11:38.931Z,3.90
2022-12-19T21:16:40.470Z,3.91
2022-12-19T21:21:42.076Z,3.94
2022-12-19T21:26:43.553Z,4.00
2022-12-19T21:31:45.056Z,4.01
2022-12-19T21:36:46.726Z,4.00
2022-12-19T21:41:48.172Z,4.00
2022-12-19T21:46:49.665Z,3.98
2022-12-19T21:51:51.265Z,4.01
2022-12-19T21:56:52.802Z,4.01
2022-12-19T22:01:54.588Z,4.05
2022-12-19T22:06:56.261Z,4.12
2022-12-19T22:11:57.744Z,4.22
2022-12-19T22:16:59.196Z,4.27
2022-12-19T22:22:00.637Z,4.30
2022-12-19T22:27:02.132Z,4.28
2022-12-19T22:32:04.313Z,4.27
2022-12-19T22:37:05.932Z,4.29
2022-12-19T22:42:07.372Z,4.31
2022-12-19T22:47:08.830Z,4.33
2022-12-19T22:52:10.254Z,4.29
2022-12-19T22:57:11.949Z,4.25
2022-12-19T23:02:13.655Z,4.15
2022-12-19T23:07:24.073Z,4.04
2022-12-19T23:12:25.576Z,4.00
2022-12-19T23:17:27.138Z,3.91
2022-12-19T23:22:28.588Z,3.86
2022-12-19T23:27:30.287Z,3.84
2022-12-19T23:32:32.022Z,3.82
2022-12-19T23:37:33.464Z,3.79
2022-12-19T23:42:35.400Z,3.77
2022-12-19T23:47:37.377Z,3.81
2022-12-19T23:52:39.062Z,3.86
2022-12-19T23:57:40.595Z,3.92
